Latest Weather Observations for Yeppoon

IDQ60801

Issued at 3:32 pm EST Sunday 22 January 2017 (issued every 30 minutes, with the page automatically refreshed every 10 minutes)

About weather observations | Map of weather stations | Latest weather observations for QLD | Other Formats
Station Details ID: 033294 Name: YEPPOON THE ESPLANADE Lat: -23.14 Lon: 150.75 Height: 5.5 m
Data from the previous 72 hours. | See also: Recent months at Yeppoon
Date/Time
EST
Temp
°C
App
Temp
°C
Dew
Point
°C
Rel
Hum
%
Delta-T
°C
Wind Press
QNH
hPa
Press
MSL
hPa
Rain since
9am
mm
Dir  Spd
km/h
Gust
km/h
Spd
kts
Gust
kts
22/03:00pm 27.5 27.4 23.5 79 2.7 ESE 30 43 16 23 1012.2 1012.2 0.0
22/02:30pm 27.4 26.8 23.4 79 2.7 ESE 32 43 17 23 1012.3 1012.3 0.0
22/02:00pm 27.9 27.4 23.5 77 3.0 ESE 32 43 17 23 1012.2 1012.2 0.0
22/01:30pm 27.6 26.7 23.2 77 3.0 ESE 33 43 18 23 1012.4 1012.4 0.0
22/01:00pm 28.4 27.9 23.8 76 3.2 ESE 33 43 18 23 1012.6 1012.6 0.0
22/12:30pm 28.2 28.7 24.0 78 2.9 ESE 28 39 15 21 1012.8 1012.8 0.0
22/12:00pm 28.0 27.9 24.2 80 2.6 ESE 32 43 17 23 1013.0 1013.0 0.0
22/11:30am 27.6 28.0 24.4 83 2.2 ESE 30 39 16 21 1013.2 1013.2 0.0
22/11:00am 27.3 27.7 24.4 84 2.0 ESE 30 43 16 23 1013.4 1013.4 0.0
22/10:30am 27.2 27.3 23.9 82 2.3 ESE 30 41 16 22 1013.6 1013.6 0.0
22/10:00am 27.9 28.6 24.3 81 2.5 ESE 28 41 15 22 1013.5 1013.5 0.0
22/09:30am 27.8 29.5 24.0 80 2.6 ESE 22 35 12 19 1013.5 1013.5 0.0
22/09:00am 27.8 29.1 24.0 80 2.6 ESE 24 35 13 19 1013.2 1013.2 0.0
22/08:30am 28.0 29.5 24.4 81 2.5 ESE 24 39 13 21 1012.9 1012.9 0.0
22/08:09am 27.8 28.4 24.2 81 2.5 E 28 41 15 22 1012.5 1012.5 0.0
22/08:00am 28.4 31.0 24.6 80 2.6 E 19 22 10 12 1012.5 1012.5 0.0
22/07:30am 28.3 31.0 24.7 81 2.5 E 19 22 10 12 1012.1 1012.1 0.0
22/07:00am 28.2 31.4 25.0 83 2.2 ENE 17 20 9 11 1011.8 1011.8 0.0
22/06:30am 27.9 30.2 24.5 82 2.4 ENE 20 24 11 13 1011.4 1011.4 0.0
22/06:00am 27.8 30.7 24.4 82 2.4 ENE 17 22 9 12 1011.1 1011.1 0.0
22/05:30am 27.6 30.1 24.4 83 2.2 ENE 19 20 10 11 1010.7 1010.7 0.0
22/05:00am 27.7 30.7 24.7 84 2.1 ENE 17 20 9 11 1010.2 1010.2 0.0
22/04:30am 27.4 30.8 24.7 85 1.9 E 15 19 8 10 1009.8 1009.8 0.0
22/04:00am 25.6 29.8 23.5 88 1.4 N 7 11 4 6 1009.5 1009.5 0.0
22/03:30am 25.4 29.6 23.1 87 1.6 N 6 9 3 5 1009.0 1009.0 0.0
22/03:00am 24.7 28.2 21.8 84 1.9 N 6 7 3 4 1008.6 1008.6 0.0
22/02:30am 25.0 28.7 22.3 85 1.8 N 6 7 3 4 1008.5 1008.5 0.0
22/02:00am 24.6 27.4 21.5 83 2.1 N 9 9 5 5 1008.6 1008.6 0.0
22/01:30am 24.8 28.3 21.1 80 2.4 N 4 6 2 3 1008.8 1008.8 0.0
22/01:00am 25.1 27.6 21.0 78 2.7 N 9 11 5 6 1008.8 1008.8 0.0
22/12:30am 25.2 29.0 20.9 77 2.8 N 2 7 1 4 1009.1 1009.1 0.0
22/12:00am 25.5 29.3 21.0 76 3.0 N 2 7 1 4 1009.2 1009.2 0.0
 
Date/Time
EST
Temp
°C
App
Temp
°C
Dew
Point
°C
Rel
Hum
%
Delta-T
°C
Wind Press
QNH
hPa
Press
MSL
hPa
Rain since
9am
mm
Dir  Spd
km/h
Gust
km/h
Spd
kts
Gust
kts
21/11:30pm 26.3 29.7 21.7 76 3.1 N 6 7 3 4 1009.2 1009.2 0.0
21/11:00pm 27.1 32.1 22.5 76 3.1 CALM 0 0 0 0 1009.4 1009.4 0.0
21/10:30pm 27.5 30.6 22.2 73 3.6 N 9 11 5 6 1009.3 1009.3 0.0
21/10:00pm 27.8 31.1 22.5 73 3.6 N 9 13 5 7 1009.1 1009.1 0.0
21/09:30pm 27.8 31.3 22.1 71 3.8 N 7 11 4 6 1008.9 1008.9 0.0
21/09:00pm 28.0 30.9 21.1 66 4.6 N 7 11 4 6 1008.5 1008.5 0.0
21/08:30pm 28.5 30.6 20.2 60 5.5 N 9 13 5 7 1008.3 1008.3 0.0
21/08:00pm 28.8 31.3 20.3 60 5.6 N 7 11 4 6 1007.8 1007.8 0.0
21/07:30pm 29.1 32.0 21.1 62 5.3 N 7 11 4 6 1007.3 1007.3 0.0
21/07:00pm 29.7 31.4 24.6 74 3.6 NNE 24 28 13 15 1006.7 1006.7 0.0
21/06:30pm 29.5 29.9 25.0 77 3.2 N 32 39 17 21 1006.0 1006.0 0.0
21/06:00pm 29.3 28.4 25.1 78 3.0 NNE 39 44 21 24 1005.5 1005.5 0.0
21/05:30pm 29.4 29.0 25.2 78 3.0 NNE 37 43 20 23 1005.6 1005.6 0.0
21/05:00pm 29.6 29.2 24.7 75 3.4 NNE 35 39 19 21 1005.4 1005.4 0.0
21/04:30pm 29.9 29.6 24.8 74 3.6 NNE 35 41 19 22 1005.5 1005.5 0.0
21/04:00pm 29.9 29.7 24.3 72 3.9 NNE 33 39 18 21 1005.6 1005.6 0.0
21/03:30pm 30.0 29.9 24.6 73 3.8 NNE 33 35 18 19 1005.9 1005.9 0.0
21/03:00pm 30.5 30.8 24.9 72 3.9 NNE 32 37 17 20 1006.2 1006.2 0.0
21/02:30pm 30.3 30.3 24.4 70 4.1 NNE 32 35 17 19 1006.4 1006.4 0.0
21/02:00pm 30.4 31.8 24.8 72 3.9 NNE 26 30 14 16 1006.8 1006.8 0.0
21/01:30pm 30.1 32.2 24.7 73 3.8 NE 22 26 12 14 1007.2 1007.2 0.0
21/01:00pm 30.4 32.2 24.3 70 4.3 NE 22 28 12 15 1007.4 1007.4 0.0
21/12:30pm 30.0 31.8 24.2 71 4.0 NE 22 26 12 14 1007.6 1007.6 0.0
21/12:00pm 30.5 32.5 23.9 68 4.6 NE 20 24 11 13 1008.1 1008.1 0.0
21/11:30am 30.6 32.5 23.5 66 4.9 NE 19 22 10 12 1008.3 1008.3 0.0
21/11:00am 30.1 32.2 23.8 69 4.4 NE 19 20 10 11 1008.7 1008.7 0.0
21/10:30am 29.7 31.0 22.4 65 5.0 NE 19 24 10 13 1009.0 1009.0 0.0
21/10:00am 31.7 33.2 19.7 49 7.9 NW 11 17 6 9 1009.2 1009.2 0.0
21/09:30am 30.4 31.1 19.7 52 7.0 W 15 26 8 14 1009.4 1009.4 0.0
21/09:00am 29.1 29.8 20.5 59 5.7 W 17 20 9 11 1009.4 1009.4 0.0
21/08:30am 28.4 30.0 20.7 63 5.1 WNW 13 19 7 10 1009.0 1009.0 0.0
21/08:00am 26.9 28.1 19.8 65 4.6 W 13 17 7 9 1009.4 1009.4 0.0
21/07:30am 26.0 28.1 20.1 70 3.8 WSW 9 13 5 7 1009.3 1009.3 0.0
21/07:00am 24.2 25.8 19.9 77 2.8 WSW 11 15 6 8 1009.6 1009.6 0.0
21/06:30am 23.1 25.2 20.1 83 1.9 WNW 9 13 5 7 1009.0 1009.0 0.0
21/06:00am 20.9 22.4 19.0 89 1.2 WNW 9 11 5 6 1008.5 1008.5 0.0
21/05:30am 20.8 22.3 18.9 89 1.2 WNW 9 11 5 6 1008.5 1008.5 0.0
21/05:00am 21.0 23.2 19.1 89 1.2 WNW 6 9 3 5 1007.9 1007.9 0.0
21/04:30am 21.2 23.4 19.3 89 1.2 NW 6 9 3 5 1007.3 1007.3 0.0
21/04:00am 21.4 23.1 19.3 88 1.3 NW 9 13 5 7 1007.3 1007.3 0.0
21/03:30am 21.5 23.5 19.2 87 1.5 NNW 7 11 4 6 1007.2 1007.2 0.0
21/03:00am 21.7 24.8 19.4 87 1.5 NNW 2 9 1 5 1007.1 1007.1 0.0
21/02:30am 22.0 24.7 19.5 86 1.6 NNW 4 7 2 4 1007.0 1007.0 0.0
21/02:00am 22.5 26.0 19.5 83 1.9 CALM 0 6 0 3 1007.3 1007.3 0.0
21/01:30am 22.6 26.1 19.6 83 1.9 CALM 0 0 0 0 1007.5 1007.5 0.0
21/01:00am 23.1 25.8 19.5 80 2.3 NNW 4 6 2 3 1007.9 1007.9 0.0
21/12:30am 23.8 26.1 19.5 77 2.8 NNW 6 7 3 4 1008.0 1008.0 0.0
21/12:00am 24.3 26.8 19.8 76 2.9 N 6 9 3 5 1008.4 1008.4 0.0
 
Date/Time
EST
Temp
°C
App
Temp
°C
Dew
Point
°C
Rel
Hum
%
Delta-T
°C
Wind Press
QNH
hPa
Press
MSL
hPa
Rain since
9am
mm
Dir  Spd
km/h
Gust
km/h
Spd
kts
Gust
kts
20/11:30pm 24.8 27.2 19.6 73 3.3 N 6 9 3 5 1008.6 1008.6 0.0
20/11:00pm 25.0 28.6 19.8 73 3.4 CALM 0 0 0 0 1008.6 1008.6 0.0
20/10:30pm 25.1 27.4 19.5 71 3.6 N 6 7 3 4 1008.7 1008.7 0.0
20/10:00pm 25.5 27.7 19.6 70 3.8 N 7 9 4 5 1008.7 1008.7 0.0
20/09:30pm 25.9 28.0 20.2 71 3.7 N 9 13 5 7 1008.5 1008.5 0.0
20/09:00pm 26.0 28.7 20.3 71 3.7 N 6 13 3 7 1008.5 1008.5 0.0
20/08:30pm 26.4 28.3 20.5 70 3.9 N 11 17 6 9 1008.3 1008.3 0.0
20/08:00pm 26.7 28.5 20.3 68 4.2 N 11 17 6 9 1008.1 1008.1 0.0
20/07:30pm 27.3 29.0 20.9 68 4.2 N 13 20 7 11 1007.5 1007.5 0.0
20/07:00pm 28.1 26.7 21.9 69 4.2 N 32 41 17 22 1006.6 1006.6 0.0
20/06:30pm 28.6 25.6 22.8 71 3.9 N 43 48 23 26 1006.2 1006.2 0.0
20/06:00pm 28.8 26.6 22.8 70 4.1 NNE 39 44 21 24 1006.1 1006.1 0.0
20/05:30pm 28.7 25.6 22.0 67 4.5 NNE 41 44 22 24 1005.8 1005.8 0.0
20/05:00pm 29.4 28.0 23.6 71 4.0 NNE 37 43 20 23 1005.7 1005.7 0.0
20/04:30pm 29.3 27.1 22.8 68 4.4 NNE 39 43 21 23 1005.7 1005.7 0.0
20/04:00pm 29.3 27.2 22.3 66 4.8 NNE 37 41 20 22 1006.0 1006.0 0.0
20/03:30pm 29.5 28.0 22.7 67 4.6 NNE 35 39 19 21 1006.4 1006.4 0.0
20/03:00pm 29.6 28.5 22.8 67 4.6 NNE 33 37 18 20 1006.9 1006.9 0.0
20/02:30pm 29.7 29.8 23.2 68 4.5 NNE 28 33 15 18 1007.3 1007.3 0.0
20/02:00pm 29.9 30.4 22.6 65 5.0 NE 24 30 13 16 1007.5 1007.5 0.0
20/01:30pm 30.3 31.0 23.0 65 5.0 NE 24 30 13 16 1007.8 1007.8 0.0
20/01:00pm 30.6 31.4 22.5 62 5.5 NE 22 28 12 15 1008.5 1008.5 0.0
20/12:30pm 30.6 31.9 22.7 62 5.4 NE 20 26 11 14 1008.8 1008.8 0.0
20/12:00pm 30.3 31.1 22.5 63 5.3 NE 22 28 12 15 1009.1 1009.1 0.0
20/11:30am 30.0 30.9 21.9 62 5.5 NE 20 24 11 13 1009.4 1009.4 0.0
20/11:00am 30.1 31.3 22.5 63 5.2 NE 20 24 11 13 1009.7 1009.7 0.0
20/10:30am 30.0 31.8 23.2 67 4.7 NE 19 26 10 14 1010.0 1010.0 0.0
20/10:00am 29.7 31.6 22.7 66 4.8 NE 17 20 9 11 1010.2 1010.2 0.0
20/09:30am 29.4 31.3 22.1 65 4.9 NE 15 19 8 10 1010.4 1010.4 0.0
20/09:00am 29.7 31.6 21.4 61 5.6 NNE 13 19 7 10 1010.3 1010.3 0.0
20/08:30am 29.2 30.8 21.4 63 5.2 NNE 15 19 8 10 1010.4 1010.4 0.0
20/08:00am 28.8 30.5 21.6 65 4.8 N 15 20 8 11 1010.4 1010.4 0.0
20/07:30am 28.5 30.4 22.0 68 4.4 N 15 24 8 13 1010.3 1010.3 0.0
20/07:00am 28.0 30.3 22.0 70 4.0 NNW 13 20 7 11 1010.0 1010.0 0.0
20/06:30am 26.7 29.7 21.9 75 3.2 NNW 9 13 5 7 1009.6 1009.6 0.0
20/06:00am 26.0 29.5 22.1 79 2.6 NW 7 11 4 6 1009.3 1009.3 0.0
20/05:30am 26.0 29.1 22.1 79 2.6 NNW 9 13 5 7 1008.9 1008.9 0.0
20/05:00am 26.0 29.2 22.3 80 2.5 NNW 9 15 5 8 1008.6 1008.6 0.0
20/04:30am 26.3 29.5 22.4 79 2.6 NNW 9 13 5 7 1008.5 1008.5 0.0
20/04:00am 26.1 29.3 22.4 80 2.5 NNW 9 13 5 7 1008.2 1008.2 0.0
20/03:30am 26.4 29.7 22.5 79 2.6 N 9 15 5 8 1008.2 1008.2 0.0
20/03:00am 26.5 29.5 22.6 79 2.6 NNW 11 17 6 9 1008.4 1008.4 0.0
20/02:30am 26.4 30.3 22.9 81 2.4 NNW 7 11 4 6 1008.6 1008.6 0.0
20/02:00am 26.6 30.6 23.1 81 2.4 N 7 15 4 8 1008.8 1008.8 0.0
20/01:30am 26.7 29.5 23.0 80 2.5 N 13 17 7 9 1008.7 1008.7 0.0
20/01:00am 27.1 30.0 23.1 79 2.7 N 13 19 7 10 1008.9 1008.9 0.0
20/12:30am 27.0 30.4 23.3 80 2.5 N 11 15 6 8 1009.1 1009.1 0.0
20/12:00am 27.0 30.0 23.3 80 2.5 N 13 20 7 11 1009.1 1009.1 0.0
 
Date/Time
EST
Temp
°C
App
Temp
°C
Dew
Point
°C
Rel
Hum
%
Delta-T
°C
Wind Press
QNH
hPa
Press
MSL
hPa
Rain since
9am
mm
Dir  Spd
km/h
Gust
km/h
Spd
kts
Gust
kts
19/11:30pm 26.8 30.4 23.1 80 2.5 N 9 13 5 7 1009.1 1009.1 0.0
19/11:00pm 26.9 30.2 23.2 80 2.5 N 11 13 6 7 1009.2 1009.2 0.0
19/10:30pm 26.6 29.6 22.7 79 2.6 N 11 17 6 9 1009.3 1009.3 0.0
19/10:00pm 27.0 28.7 23.0 79 2.7 N 19 20 10 11 1009.1 1009.1 0.0
19/09:30pm 27.0 29.2 23.3 80 2.5 N 17 20 9 11 1008.5 1008.5 0.0
19/09:00pm 27.4 28.5 23.0 77 3.0 N 22 26 12 14 1008.2 1008.2 0.0
19/08:30pm 27.6 28.6 22.8 75 3.3 N 22 30 12 16 1008.0 1008.0 0.0
19/08:00pm 28.3 28.5 22.8 72 3.7 N 26 33 14 18 1007.8 1007.8 0.0
19/07:30pm 28.7 28.6 23.6 74 3.5 N 30 35 16 19 1007.4 1007.4 0.0
19/07:00pm 28.8 29.0 24.1 76 3.3 N 30 33 16 18 1006.9 1006.9 0.0
19/06:30pm 28.8 27.2 24.6 78 2.9 NNE 41 46 22 25 1006.4 1006.4 0.0
19/06:00pm 29.1 28.1 24.9 78 2.9 NNE 39 46 21 25 1006.1 1006.1 0.0
19/05:30pm 29.3 28.8 25.1 78 2.9 NNE 37 43 20 23 1006.0 1006.0 0.0
19/05:00pm 29.6 29.7 25.4 78 3.0 NNE 35 39 19 21 1005.8 1005.8 0.0
19/04:30pm 29.8 29.8 25.3 77 3.2 NNE 35 39 19 21 1005.9 1005.9 0.0
19/04:00pm 29.9 30.3 25.0 75 3.4 NNE 32 35 17 19 1006.1 1006.1 0.0

Other Formats:

Comma delimited format used in spreadsheet applications
http://www.bom.gov.au/fwo/IDQ60801/IDQ60801.94373.axf

JavaScript Object Notation format (JSON) in row-major order
http://www.bom.gov.au/fwo/IDQ60801/IDQ60801.94373.json